sensor_id;sensor_type;location;lat;lon;timestamp;pressure;altitude;pressure_sealevel;temperature;humidity
6345;BME280;3205;42.666;23.264;2023-04-19T00:00:56;93969.72;;;10.34;nan
6345;BME280;3205;42.666;23.264;2023-04-19T00:03:24;93967.25;;;10.41;nan
6345;BME280;3205;42.666;23.264;2023-04-19T00:05:50;93964.53;;;10.38;nan
6345;BME280;3205;42.666;23.264;2023-04-19T00:08:18;93964.88;;;10.36;nan
6345;BME280;3205;42.666;23.264;2023-04-19T00:10:44;93969.13;;;10.41;nan
6345;BME280;3205;42.666;23.264;2023-04-19T00:13:10;93967.69;;;10.43;nan
6345;BME280;3205;42.666;23.264;2023-04-19T00:15:37;93957.13;;;10.43;nan
6345;BME280;3205;42.666;23.264;2023-04-19T00:18:03;93963.59;;;10.46;nan
6345;BME280;3205;42.666;23.264;2023-04-19T00:20:29;93958.31;;;10.46;nan
6345;BME280;3205;42.666;23.264;2023-04-19T00:22:56;93958.75;;;10.48;nan
6345;BME280;3205;42.666;23.264;2023-04-19T00:25:23;93953.81;;;10.46;nan
6345;BME280;3205;42.666;23.264;2023-04-19T00:27:49;93947.34;;;10.44;nan
6345;BME280;3205;42.666;23.264;2023-04-19T00:30:15;93948.09;;;10.44;nan
6345;BME280;3205;42.666;23.264;2023-04-19T00:32:41;93948.09;;;10.44;nan
6345;BME280;3205;42.666;23.264;2023-04-19T00:35:08;93957.97;;;10.47;nan
6345;BME280;3205;42.666;23.264;2023-04-19T00:37:34;93947.41;;;10.47;nan
6345;BME280;3205;42.666;23.264;2023-04-19T00:40:00;93948.16;;;10.48;nan
6345;BME280;3205;42.666;23.264;2023-04-19T00:42:26;93951.56;;;10.48;nan
6345;BME280;3205;42.666;23.264;2023-04-19T00:44:53;93943.63;;;10.48;nan
6345;BME280;3205;42.666;23.264;2023-04-19T00:47:19;93953.53;;;10.51;nan
6345;BME280;3205;42.666;23.264;2023-04-19T00:49:45;93946.28;;;10.48;nan
6345;BME280;3205;42.666;23.264;2023-04-19T00:52:11;93948.94;;;10.48;nan
6345;BME280;3205;42.666;23.264;2023-04-19T00:54:38;93944.34;;;10.45;nan
6345;BME280;3205;42.666;23.264;2023-04-19T00:57:06;93940.50;;;10.43;nan
6345;BME280;3205;42.666;23.264;2023-04-19T00:59:33;93939.31;;;10.40;nan
6345;BME280;3205;42.666;23.264;2023-04-19T01:02:00;93939.41;;;10.44;nan
6345;BME280;3205;42.666;23.264;2023-04-19T01:04:26;93942.53;;;10.49;nan
6345;BME280;3205;42.666;23.264;2023-04-19T01:06:52;93928.47;;;10.45;nan
6345;BME280;3205;42.666;23.264;2023-04-19T01:09:18;93931.47;;;10.44;nan
6345;BME280;3205;42.666;23.264;2023-04-19T01:11:45;93929.25;;;10.46;nan
6345;BME280;3205;42.666;23.264;2023-04-19T01:14:11;93928.75;;;10.40;nan
6345;BME280;3205;42.666;23.264;2023-04-19T01:16:40;93926.59;;;10.46;nan
6345;BME280;3205;42.666;23.264;2023-04-19T01:19:06;93926.34;;;10.35;nan
6345;BME280;3205;42.666;23.264;2023-04-19T01:21:32;93928.75;;;10.40;nan
6345;BME280;3205;42.666;23.264;2023-04-19T01:24:03;93928.41;;;10.42;nan
6345;BME280;3205;42.666;23.264;2023-04-19T01:26:30;93926.19;;;10.44;nan
6345;BME280;3205;42.666;23.264;2023-04-19T01:28:56;93922.59;;;10.36;nan
6345;BME280;3205;42.666;23.264;2023-04-19T01:31:22;93922.94;;;10.35;nan
6345;BME280;3205;42.666;23.264;2023-04-19T01:33:48;93923.38;;;10.37;nan
6345;BME280;3205;42.666;23.264;2023-04-19T01:36:14;93925.50;;;10.32;nan
6345;BME280;3205;42.666;23.264;2023-04-19T01:38:40;93919.78;;;10.30;nan
6345;BME280;3205;42.666;23.264;2023-04-19T01:41:07;93923.31;;;10.34;nan
6345;BME280;3205;42.666;23.264;2023-04-19T01:43:33;93923.38;;;10.37;nan
6345;BME280;3205;42.666;23.264;2023-04-19T01:45:59;93921.16;;;10.39;nan
6345;BME280;3205;42.666;23.264;2023-04-19T01:48:25;93918.09;;;10.37;nan
6345;BME280;3205;42.666;23.264;2023-04-19T01:50:51;93917.06;;;10.41;nan
6345;BME280;3205;42.666;23.264;2023-04-19T01:53:17;93915.03;;;10.35;nan
6345;BME280;3205;42.666;23.264;2023-04-19T01:55:44;93915.28;;;10.30;nan
6345;BME280;3205;42.666;23.264;2023-04-19T01:58:11;93913.22;;;10.39;nan
6345;BME280;3205;42.666;23.264;2023-04-19T02:00:37;93910.00;;;10.30;nan
6345;BME280;3205;42.666;23.264;2023-04-19T02:03:03;93914.84;;;10.28;nan
6345;BME280;3205;42.666;23.264;2023-04-19T02:05:29;93913.91;;;10.21;nan
6345;BME280;3205;42.666;23.264;2023-04-19T02:07:55;93919.34;;;10.28;nan
6345;BME280;3205;42.666;23.264;2023-04-19T02:10:21;93916.03;;;10.31;nan
6345;BME280;3205;42.666;23.264;2023-04-19T02:12:47;93918.41;;;10.35;nan
6345;BME280;3205;42.666;23.264;2023-04-19T02:15:14;93920.31;;;10.35;nan
6345;BME280;3205;42.666;23.264;2023-04-19T02:17:40;93916.22;;;10.37;nan
6345;BME280;3205;42.666;23.264;2023-04-19T02:20:07;93920.56;;;10.30;nan
6345;BME280;3205;42.666;23.264;2023-04-19T02:22:33;93919.69;;;10.26;nan
6345;BME280;3205;42.666;23.264;2023-04-19T02:25:00;93914.41;;;10.26;nan
6345;BME280;3205;42.666;23.264;2023-04-19T02:27:26;93918.59;;;10.27;nan
6345;BME280;3205;42.666;23.264;2023-04-19T02:29:52;93915.44;;;10.22;nan
6345;BME280;3205;42.666;23.264;2023-04-19T02:32:19;93911.94;;;10.18;nan
6345;BME280;3205;42.666;23.264;2023-04-19T02:34:45;93909.75;;;10.20;nan
6345;BME280;3205;42.666;23.264;2023-04-19T02:37:11;93913.50;;;10.19;nan
6345;BME280;3205;42.666;23.264;2023-04-19T02:39:37;93909.31;;;10.18;nan
6345;BME280;3205;42.666;23.264;2023-04-19T02:42:04;93906.66;;;10.18;nan
6345;BME280;3205;42.666;23.264;2023-04-19T02:44:30;93906.75;;;10.21;nan
6345;BME280;3205;42.666;23.264;2023-04-19T02:46:56;93912.13;;;10.25;nan
6345;BME280;3205;42.666;23.264;2023-04-19T02:49:23;93909.84;;;10.23;nan
6345;BME280;3205;42.666;23.264;2023-04-19T02:51:50;93906.84;;;10.25;nan
6345;BME280;3205;42.666;23.264;2023-04-19T02:54:16;93899.94;;;10.20;nan
6345;BME280;3205;42.666;23.264;2023-04-19T02:56:42;93898.31;;;10.16;nan
6345;BME280;3205;42.666;23.264;2023-04-19T02:59:08;93907.50;;;10.22;nan
6345;BME280;3205;42.666;23.264;2023-04-19T03:01:34;93902.94;;;10.19;nan
6345;BME280;3205;42.666;23.264;2023-04-19T03:04:00;93906.59;;;10.14;nan
6345;BME280;3205;42.666;23.264;2023-04-19T03:06:27;93907.16;;;10.08;nan
6345;BME280;3205;42.666;23.264;2023-04-19T03:08:53;93910.69;;;10.12;nan
6345;BME280;3205;42.666;23.264;2023-04-19T03:11:19;93911.88;;;10.14;nan
6345;BME280;3205;42.666;23.264;2023-04-19T03:13:46;93907.50;;;10.06;nan
6345;BME280;3205;42.666;23.264;2023-04-19T03:16:12;93908.28;;;10.07;nan
6345;BME280;3205;42.666;23.264;2023-04-19T03:18:38;93905.66;;;10.07;nan
6345;BME280;3205;42.666;23.264;2023-04-19T03:21:06;93905.66;;;10.07;nan
6345;BME280;3205;42.666;23.264;2023-04-19T03:23:34;93903.84;;;10.11;nan
6345;BME280;3205;42.666;23.264;2023-04-19T03:26:00;93901.97;;;10.11;nan
6345;BME280;3205;42.666;23.264;2023-04-19T03:28:26;93901.22;;;10.11;nan
6345;BME280;3205;42.666;23.264;2023-04-19T03:30:52;93903.50;;;10.12;nan
6345;BME280;3205;42.666;23.264;2023-04-19T03:33:18;93898.94;;;10.09;nan
6345;BME280;3205;42.666;23.264;2023-04-19T03:35:44;93909.56;;;10.13;nan
6345;BME280;3205;42.666;23.264;2023-04-19T03:38:10;93909.81;;;10.08;nan
6345;BME280;3205;42.666;23.264;2023-04-19T03:40:37;93911.59;;;10.04;nan
6345;BME280;3205;42.666;23.264;2023-04-19T03:43:03;93902.06;;;9.99;nan
6345;BME280;3205;42.666;23.264;2023-04-19T03:45:30;93911.41;;;9.97;nan
6345;BME280;3205;42.666;23.264;2023-04-19T03:47:56;93907.56;;;9.94;nan
6345;BME280;3205;42.666;23.264;2023-04-19T03:50:22;93906.59;;;9.99;nan
6345;BME280;3205;42.666;23.264;2023-04-19T03:52:48;93903.00;;;10.07;nan
6345;BME280;3205;42.666;23.264;2023-04-19T03:55:14;93901.88;;;10.08;nan
6345;BME280;3205;42.666;23.264;2023-04-19T03:57:41;93896.09;;;10.18;nan
6345;BME280;3205;42.666;23.264;2023-04-19T04:00:07;93901.66;;;10.28;nan
6345;BME280;3205;42.666;23.264;2023-04-19T04:02:37;93902.41;;;10.29;nan
6345;BME280;3205;42.666;23.264;2023-04-19T04:05:04;93898.22;;;10.28;nan
6345;BME280;3205;42.666;23.264;2023-04-19T04:07:30;93906.94;;;10.28;nan
6345;BME280;3205;42.666;23.264;2023-04-19T04:09:56;93907.28;;;10.27;nan
6345;BME280;3205;42.666;23.264;2023-04-19T04:12:22;93909.91;;;10.27;nan
6345;BME280;3205;42.666;23.264;2023-04-19T04:14:49;93909.22;;;10.30;nan
6345;BME280;3205;42.666;23.264;2023-04-19T04:17:15;93911.19;;;10.33;nan
6345;BME280;3205;42.666;23.264;2023-04-19T04:19:41;93913.06;;;10.32;nan
6345;BME280;3205;42.666;23.264;2023-04-19T04:22:07;93913.13;;;10.35;nan
6345;BME280;3205;42.666;23.264;2023-04-19T04:24:37;93906.16;;;10.43;nan
6345;BME280;3205;42.666;23.264;2023-04-19T04:27:03;93910.94;;;10.37;nan
6345;BME280;3205;42.666;23.264;2023-04-19T04:29:31;93914.50;;;10.45;nan
6345;BME280;3205;42.666;23.264;2023-04-19T04:31:58;93916.81;;;10.46;nan
6345;BME280;3205;42.666;23.264;2023-04-19T04:34:24;93918.59;;;10.42;nan
6345;BME280;3205;42.666;23.264;2023-04-19T04:36:50;93927.03;;;10.48;nan
6345;BME280;3205;42.666;23.264;2023-04-19T04:39:16;93926.28;;;10.47;nan
6345;BME280;3205;42.666;23.264;2023-04-19T04:41:43;93931.13;;;10.45;nan
6345;BME280;3205;42.666;23.264;2023-04-19T04:44:10;93925.41;;;10.43;nan
6345;BME280;3205;42.666;23.264;2023-04-19T04:46:37;93926.44;;;10.39;nan
6345;BME280;3205;42.666;23.264;2023-04-19T04:49:03;93925.31;;;10.40;nan
6345;BME280;3205;42.666;23.264;2023-04-19T04:51:29;93929.06;;;10.39;nan
6345;BME280;3205;42.666;23.264;2023-04-19T04:53:56;93926.09;;;10.40;nan
6345;BME280;3205;42.666;23.264;2023-04-19T04:56:22;93932.22;;;10.44;nan
6345;BME280;3205;42.666;23.264;2023-04-19T04:58:50;93933.25;;;10.40;nan
6345;BME280;3205;42.666;23.264;2023-04-19T05:01:16;93934.19;;;10.32;nan
6345;BME280;3205;42.666;23.264;2023-04-19T05:03:43;93932.72;;;10.34;nan
6345;BME280;3205;42.666;23.264;2023-04-19T05:06:10;93927.53;;;10.38;nan
6345;BME280;3205;42.666;23.264;2023-04-19T05:08:36;93929.41;;;10.37;nan
6345;BME280;3205;42.666;23.264;2023-04-19T05:11:02;93926.03;;;10.37;nan
6345;BME280;3205;42.666;23.264;2023-04-19T05:13:28;93937.50;;;10.44;nan
6345;BME280;3205;42.666;23.264;2023-04-19T05:15:54;93939.72;;;10.42;nan
6345;BME280;3205;42.666;23.264;2023-04-19T05:18:20;93942.72;;;10.41;nan
6345;BME280;3205;42.666;23.264;2023-04-19T05:20:47;93938.97;;;10.42;nan
6345;BME280;3205;42.666;23.264;2023-04-19T05:23:13;93935.81;;;10.36;nan
6345;BME280;3205;42.666;23.264;2023-04-19T05:25:39;93946.81;;;10.38;nan
6345;BME280;3205;42.666;23.264;2023-04-19T05:28:05;93945.78;;;10.43;nan
6345;BME280;3205;42.666;23.264;2023-04-19T05:30:31;93943.31;;;10.50;nan
6345;BME280;3205;42.666;23.264;2023-04-19T05:32:57;93951.16;;;10.62;nan
6345;BME280;3205;42.666;23.264;2023-04-19T05:35:24;93949.09;;;10.71;nan
6345;BME280;3205;42.666;23.264;2023-04-19T05:37:50;93940.56;;;10.77;nan
6345;BME280;3205;42.666;23.264;2023-04-19T05:40:17;93945.56;;;10.82;nan
6345;BME280;3205;42.666;23.264;2023-04-19T05:42:43;93951.28;;;10.84;nan
6345;BME280;3205;42.666;23.264;2023-04-19T05:45:10;93949.22;;;10.93;nan
6345;BME280;3205;42.666;23.264;2023-04-19T05:47:36;93950.50;;;10.99;nan
6345;BME280;3205;42.666;23.264;2023-04-19T05:50:02;93950.84;;;10.98;nan
6345;BME280;3205;42.666;23.264;2023-04-19T05:52:28;93947.16;;;11.02;nan
6345;BME280;3205;42.666;23.264;2023-04-19T05:54:55;93952.00;;;11.15;nan
6345;BME280;3205;42.666;23.264;2023-04-19T05:57:21;93955.53;;;11.23;nan
6345;BME280;3205;42.666;23.264;2023-04-19T05:59:47;93952.28;;;11.29;nan
6345;BME280;3205;42.666;23.264;2023-04-19T06:02:13;93958.41;;;11.33;nan
6345;BME280;3205;42.666;23.264;2023-04-19T06:04:40;93958.41;;;11.33;nan
6345;BME280;3205;42.666;23.264;2023-04-19T06:07:06;93960.25;;;11.48;nan
6345;BME280;3205;42.666;23.264;2023-04-19T06:09:32;93959.72;;;11.58;nan
6345;BME280;3205;42.666;23.264;2023-04-19T06:11:58;93964.75;;;11.63;nan
6345;BME280;3205;42.666;23.264;2023-04-19T06:14:26;93961.53;;;11.73;nan
6345;BME280;3205;42.666;23.264;2023-04-19T06:16:52;93969.88;;;11.75;nan
6345;BME280;3205;42.666;23.264;2023-04-19T06:19:19;93966.47;;;11.93;nan
6345;BME280;3205;42.666;23.264;2023-04-19T06:21:45;93971.72;;;12.12;nan
6345;BME280;3205;42.666;23.264;2023-04-19T06:24:12;93969.88;;;12.35;nan
6345;BME280;3205;42.666;23.264;2023-04-19T06:26:38;93972.13;;;12.78;nan
6345;BME280;3205;42.666;23.264;2023-04-19T06:29:04;93976.47;;;13.12;nan
6345;BME280;3205;42.666;23.264;2023-04-19T06:31:31;93979.56;;;13.17;nan
6345;BME280;3205;42.666;23.264;2023-04-19T06:33:57;93983.94;;;13.32;nan
6345;BME280;3205;42.666;23.264;2023-04-19T06:36:23;93993.91;;;13.38;nan
6345;BME280;3205;42.666;23.264;2023-04-19T06:38:50;93983.88;;;13.54;nan
6345;BME280;3205;42.666;23.264;2023-04-19T06:41:16;93986.94;;;13.56;nan
6345;BME280;3205;42.666;23.264;2023-04-19T06:43:42;93994.91;;;13.56;nan
6345;BME280;3205;42.666;23.264;2023-04-19T06:46:09;93996.22;;;13.69;nan
6345;BME280;3205;42.666;23.264;2023-04-19T06:48:38;93997.28;;;13.94;nan
6345;BME280;3205;42.666;23.264;2023-04-19T06:51:04;93999.97;;;13.98;nan
6345;BME280;3205;42.666;23.264;2023-04-19T06:53:31;93999.97;;;13.98;nan
6345;BME280;3205;42.666;23.264;2023-04-19T06:55:58;94003.78;;;13.97;nan
6345;BME280;3205;42.666;23.264;2023-04-19T06:58:25;94009.94;;;14.04;nan
6345;BME280;3205;42.666;23.264;2023-04-19T07:00:51;94008.53;;;14.13;nan
6345;BME280;3205;42.666;23.264;2023-04-19T07:03:18;94012.19;;;14.35;nan
6345;BME280;3205;42.666;23.264;2023-04-19T07:05:45;94009.72;;;14.52;nan
6345;BME280;3205;42.666;23.264;2023-04-19T07:08:11;94011.81;;;14.73;nan
6345;BME280;3205;42.666;23.264;2023-04-19T07:10:38;94015.47;;;15.01;nan
6345;BME280;3205;42.666;23.264;2023-04-19T07:13:04;94020.88;;;15.08;nan
6345;BME280;3205;42.666;23.264;2023-04-19T07:15:30;94019.53;;;15.28;nan
6345;BME280;3205;42.666;23.264;2023-04-19T07:17:56;94015.84;;;15.46;nan
6345;BME280;3205;42.666;23.264;2023-04-19T07:20:22;94013.44;;;15.27;nan
6345;BME280;3205;42.666;23.264;2023-04-19T07:22:49;94021.50;;;15.34;nan
6345;BME280;3205;42.666;23.264;2023-04-19T07:25:15;94020.06;;;15.00;nan
6345;BME280;3205;42.666;23.264;2023-04-19T07:27:41;94019.88;;;14.80;nan
6345;BME280;3205;42.666;23.264;2023-04-19T07:30:08;94023.88;;;14.60;nan
6345;BME280;3205;42.666;23.264;2023-04-19T07:32:34;94015.59;;;14.32;nan
6345;BME280;3205;42.666;23.264;2023-04-19T07:35:19;94021.69;;;14.36;nan
6345;BME280;3205;42.666;23.264;2023-04-19T07:37:45;94023.88;;;14.23;nan
6345;BME280;3205;42.666;23.264;2023-04-19T07:40:12;94022.66;;;14.21;nan
6345;BME280;3205;42.666;23.264;2023-04-19T07:42:38;94014.38;;;14.26;nan
6345;BME280;3205;42.666;23.264;2023-04-19T07:45:06;94013.31;;;14.30;nan
6345;BME280;3205;42.666;23.264;2023-04-19T07:47:33;94020.88;;;14.28;nan
6345;BME280;3205;42.666;23.264;2023-04-19T07:50:01;94020.16;;;14.35;nan
6345;BME280;3205;42.666;23.264;2023-04-19T07:52:28;94015.78;;;14.49;nan
6345;BME280;3205;42.666;23.264;2023-04-19T07:54:54;94011.28;;;14.57;nan
6345;BME280;3205;42.666;23.264;2023-04-19T07:57:22;94008.34;;;14.69;nan
6345;BME280;3205;42.666;23.264;2023-04-19T07:59:48;94014.53;;;14.80;nan
6345;BME280;3205;42.666;23.264;2023-04-19T08:02:14;94019.09;;;14.79;nan
6345;BME280;3205;42.666;23.264;2023-04-19T08:04:41;94023.53;;;14.65;nan
6345;BME280;3205;42.666;23.264;2023-04-19T08:07:07;94015.16;;;14.66;nan
6345;BME280;3205;42.666;23.264;2023-04-19T08:09:34;94017.59;;;14.78;nan
6345;BME280;3205;42.666;23.264;2023-04-19T08:12:02;94021.19;;;14.99;nan
6345;BME280;3205;42.666;23.264;2023-04-19T08:14:29;94016.59;;;14.96;nan
6345;BME280;3205;42.666;23.264;2023-04-19T08:16:55;94018.13;;;14.97;nan
6345;BME280;3205;42.666;23.264;2023-04-19T08:19:21;94012.66;;;14.83;nan
6345;BME280;3205;42.666;23.264;2023-04-19T08:21:47;94013.09;;;14.89;nan
6345;BME280;3205;42.666;23.264;2023-04-19T08:24:13;94021.09;;;14.89;nan
6345;BME280;3205;42.666;23.264;2023-04-19T08:26:39;94022.47;;;14.73;nan
6345;BME280;3205;42.666;23.264;2023-04-19T08:29:05;94018.69;;;14.74;nan
6345;BME280;3205;42.666;23.264;2023-04-19T08:31:32;94015.78;;;14.49;nan
6345;BME280;3205;42.666;23.264;2023-04-19T08:33:58;94017.13;;;14.69;nan
6345;BME280;3205;42.666;23.264;2023-04-19T08:36:24;94023.75;;;14.89;nan
6345;BME280;3205;42.666;23.264;2023-04-19T08:38:52;94012.69;;;14.87;nan
6345;BME280;3205;42.666;23.264;2023-04-19T08:41:21;94013.78;;;15.22;nan
6345;BME280;3205;42.666;23.264;2023-04-19T08:43:50;94014.38;;;15.56;nan
6345;BME280;3205;42.666;23.264;2023-04-19T08:46:16;94006.47;;;15.66;nan
6345;BME280;3205;42.666;23.264;2023-04-19T08:48:44;94012.38;;;16.03;nan
6345;BME280;3205;42.666;23.264;2023-04-19T08:51:13;94007.81;;;16.14;nan
6345;BME280;3205;42.666;23.264;2023-04-19T08:53:42;94009.47;;;16.39;nan
6345;BME280;3205;42.666;23.264;2023-04-19T08:56:09;93999.94;;;16.41;nan
6345;BME280;3205;42.666;23.264;2023-04-19T08:58:35;94000.00;;;16.62;nan
6345;BME280;3205;42.666;23.264;2023-04-19T09:01:03;94000.38;;;16.61;nan
6345;BME280;3205;42.666;23.264;2023-04-19T09:03:29;94001.53;;;16.74;nan
6345;BME280;3205;42.666;23.264;2023-04-19T09:05:57;94000.78;;;16.73;nan
6345;BME280;3205;42.666;23.264;2023-04-19T09:08:27;94001.91;;;16.83;nan
6345;BME280;3205;42.666;23.264;2023-04-19T09:10:54;93997.38;;;17.25;nan
6345;BME280;3205;42.666;23.264;2023-04-19T09:13:21;94003.47;;;17.57;nan
6345;BME280;3205;42.666;23.264;2023-04-19T09:15:47;93995.06;;;17.51;nan
6345;BME280;3205;42.666;23.264;2023-04-19T09:18:13;93989.53;;;18.21;nan
6345;BME280;3205;42.666;23.264;2023-04-19T09:20:41;93980.16;;;19.18;nan
6345;BME280;3205;42.666;23.264;2023-04-19T09:23:10;93979.91;;;19.86;nan
6345;BME280;3205;42.666;23.264;2023-04-19T09:25:37;93981.97;;;20.68;nan
6345;BME280;3205;42.666;23.264;2023-04-19T09:28:09;93985.56;;;21.82;nan
6345;BME280;3205;42.666;23.264;2023-04-19T09:30:36;93974.16;;;23.23;nan
6345;BME280;3205;42.666;23.264;2023-04-19T09:33:02;93978.97;;;24.76;nan
6345;BME280;3205;42.666;23.264;2023-04-19T09:35:39;93985.84;;;25.89;nan
6345;BME280;3205;42.666;23.264;2023-04-19T09:38:06;93989.53;;;27.89;nan
6345;BME280;3205;42.666;23.264;2023-04-19T09:40:33;93984.06;;;27.72;nan
6345;BME280;3205;42.666;23.264;2023-04-19T09:42:59;93983.94;;;27.84;nan
6345;BME280;3205;42.666;23.264;2023-04-19T09:45:26;93989.84;;;28.63;nan
6345;BME280;3205;42.666;23.264;2023-04-19T09:48:03;93980.94;;;29.95;nan
6345;BME280;3205;42.666;23.264;2023-04-19T09:50:29;93987.72;;;28.94;nan
6345;BME280;3205;42.666;23.264;2023-04-19T09:52:56;93977.41;;;26.94;nan
6345;BME280;3205;42.666;23.264;2023-04-19T09:55:23;93979.34;;;26.21;nan
6345;BME280;3205;42.666;23.264;2023-04-19T09:57:50;93972.25;;;24.69;nan
6345;BME280;3205;42.666;23.264;2023-04-19T10:00:17;93977.47;;;24.06;nan
6345;BME280;3205;42.666;23.264;2023-04-19T10:02:46;93966.53;;;22.86;nan
6345;BME280;3205;42.666;23.264;2023-04-19T10:05:20;93975.38;;;22.32;nan
6345;BME280;3205;42.666;23.264;2023-04-19T10:07:47;93965.75;;;21.92;nan
6345;BME280;3205;42.666;23.264;2023-04-19T10:10:14;93961.34;;;21.37;nan
6345;BME280;3205;42.666;23.264;2023-04-19T10:12:44;93960.69;;;20.54;nan
6345;BME280;3205;42.666;23.264;2023-04-19T10:15:13;93948.91;;;20.14;nan
6345;BME280;3205;42.666;23.264;2023-04-19T10:17:40;93945.41;;;19.84;nan
6345;BME280;3205;42.666;23.264;2023-04-19T10:20:09;93958.41;;;19.89;nan
6345;BME280;3205;42.666;23.264;2023-04-19T10:22:37;93953.94;;;19.76;nan
6345;BME280;3205;42.666;23.264;2023-04-19T10:25:07;93957.34;;;19.43;nan
6345;BME280;3205;42.666;23.264;2023-04-19T10:27:34;93950.38;;;19.52;nan
6345;BME280;3205;42.666;23.264;2023-04-19T10:30:01;93945.03;;;19.05;nan
6345;BME280;3205;42.666;23.264;2023-04-19T10:32:36;93947.91;;;18.81;nan
6345;BME280;3205;42.666;23.264;2023-04-19T10:35:07;93943.03;;;18.65;nan
6345;BME280;3205;42.666;23.264;2023-04-19T10:37:38;93943.44;;;18.61;nan
6345;BME280;3205;42.666;23.264;2023-04-19T10:40:06;93929.88;;;18.31;nan
6345;BME280;3205;42.666;23.264;2023-04-19T10:45:36;93937.38;;;17.64;nan
6345;BME280;3205;42.666;23.264;2023-04-19T10:48:04;93931.28;;;17.60;nan
6345;BME280;3205;42.666;23.264;2023-04-19T10:50:56;93923.22;;;17.78;nan
6345;BME280;3205;42.666;23.264;2023-04-19T10:53:44;93926.94;;;18.04;nan
6345;BME280;3205;42.666;23.264;2023-04-19T10:56:11;93921.53;;;18.11;nan
6345;BME280;3205;42.666;23.264;2023-04-19T10:59:10;93924.19;;;18.18;nan
6345;BME280;3205;42.666;23.264;2023-04-19T11:01:39;93916.22;;;18.04;nan
6345;BME280;3205;42.666;23.264;2023-04-19T11:04:08;93910.63;;;17.68;nan
6345;BME280;3205;42.666;23.264;2023-04-19T11:06:35;93919.47;;;17.61;nan
6345;BME280;3205;42.666;23.264;2023-04-19T11:09:01;93912.22;;;17.55;nan
6345;BME280;3205;42.666;23.264;2023-04-19T11:11:32;93915.22;;;17.71;nan
6345;BME280;3205;42.666;23.264;2023-04-19T11:14:00;93914.44;;;17.74;nan
6345;BME280;3205;42.666;23.264;2023-04-19T11:16:27;93909.44;;;17.83;nan
6345;BME280;3205;42.666;23.264;2023-04-19T11:18:53;93910.63;;;17.68;nan
6345;BME280;3205;42.666;23.264;2023-04-19T11:21:21;93921.41;;;17.40;nan
6345;BME280;3205;42.666;23.264;2023-04-19T11:23:48;93911.09;;;17.49;nan
6345;BME280;3205;42.666;23.264;2023-04-19T11:26:14;93910.34;;;17.41;nan
6345;BME280;3205;42.666;23.264;2023-04-19T11:28:40;93913.06;;;17.03;nan
6345;BME280;3205;42.666;23.264;2023-04-19T11:31:06;93908.84;;;17.19;nan
6345;BME280;3205;42.666;23.264;2023-04-19T11:33:33;93913.41;;;17.22;nan
6345;BME280;3205;42.666;23.264;2023-04-19T11:35:59;93904.66;;;17.29;nan
6345;BME280;3205;42.666;23.264;2023-04-19T11:38:27;93900.44;;;17.24;nan
6345;BME280;3205;42.666;23.264;2023-04-19T11:40:57;93903.50;;;17.16;nan
6345;BME280;3205;42.666;23.264;2023-04-19T11:43:31;93903.50;;;17.37;nan
6345;BME280;3205;42.666;23.264;2023-04-19T11:46:03;93896.63;;;17.32;nan
6345;BME280;3205;42.666;23.264;2023-04-19T11:48:30;93900.41;;;17.49;nan
6345;BME280;3205;42.666;23.264;2023-04-19T11:50:57;93893.88;;;17.64;nan
6345;BME280;3205;42.666;23.264;2023-04-19T11:53:24;93906.19;;;17.30;nan
6345;BME280;3205;42.666;23.264;2023-04-19T11:55:53;93900.44;;;17.35;nan
6345;BME280;3205;42.666;23.264;2023-04-19T11:58:27;93891.94;;;17.61;nan
6345;BME280;3205;42.666;23.264;2023-04-19T12:00:54;93891.47;;;17.93;nan
6345;BME280;3205;42.666;23.264;2023-04-19T12:03:21;93884.97;;;17.87;nan
6345;BME280;3205;42.666;23.264;2023-04-19T12:05:52;93887.69;;;17.77;nan
6345;BME280;3205;42.666;23.264;2023-04-19T12:08:29;93888.97;;;17.41;nan
6345;BME280;3205;42.666;23.264;2023-04-19T12:10:57;93891.69;;;17.31;nan
6345;BME280;3205;42.666;23.264;2023-04-19T12:13:24;93884.41;;;17.28;nan
6345;BME280;3205;42.666;23.264;2023-04-19T12:15:50;93876.38;;;17.35;nan
6345;BME280;3205;42.666;23.264;2023-04-19T12:18:17;93880.19;;;17.37;nan
6345;BME280;3205;42.666;23.264;2023-04-19T12:20:44;93880.19;;;17.44;nan
6345;BME280;3205;42.666;23.264;2023-04-19T12:23:10;93882.91;;;17.27;nan
6345;BME280;3205;42.666;23.264;2023-04-19T12:25:38;93871.06;;;17.28;nan
6345;BME280;3205;42.666;23.264;2023-04-19T12:28:05;93874.50;;;17.39;nan
6345;BME280;3205;42.666;23.264;2023-04-19T12:30:31;93876.34;;;17.45;nan
6345;BME280;3205;42.666;23.264;2023-04-19T12:32:58;93876.66;;;17.72;nan
6345;BME280;3205;42.666;23.264;2023-04-19T12:35:24;93875.09;;;17.81;nan
6345;BME280;3205;42.666;23.264;2023-04-19T12:37:52;93874.16;;;18.08;nan
6345;BME280;3205;42.666;23.264;2023-04-19T12:40:19;93866.28;;;18.52;nan
6345;BME280;3205;42.666;23.264;2023-04-19T12:42:45;93874.16;;;18.69;nan
6345;BME280;3205;42.666;23.264;2023-04-19T12:45:12;93870.53;;;18.90;nan
6345;BME280;3205;42.666;23.264;2023-04-19T12:47:38;93866.28;;;18.96;nan
6345;BME280;3205;42.666;23.264;2023-04-19T12:50:07;93869.34;;;18.94;nan
6345;BME280;3205;42.666;23.264;2023-04-19T12:52:34;93875.22;;;18.79;nan
6345;BME280;3205;42.666;23.264;2023-04-19T12:55:00;93872.97;;;18.74;nan
6345;BME280;3205;42.666;23.264;2023-04-19T12:57:26;93868.38;;;18.74;nan
6345;BME280;3205;42.666;23.264;2023-04-19T12:59:53;93866.41;;;18.78;nan
6345;BME280;3205;42.666;23.264;2023-04-19T13:02:19;93869.06;;;18.82;nan
6345;BME280;3205;42.666;23.264;2023-04-19T13:04:45;93873.88;;;18.57;nan
6345;BME280;3205;42.666;23.264;2023-04-19T13:07:14;93875.06;;;18.49;nan
6345;BME280;3205;42.666;23.264;2023-04-19T13:09:40;93880.22;;;18.26;nan
6345;BME280;3205;42.666;23.264;2023-04-19T13:12:07;93889.00;;;17.20;nan
6345;BME280;3205;42.666;23.264;2023-04-19T13:14:33;93897.81;;;16.83;nan
6345;BME280;3205;42.666;23.264;2023-04-19T13:16:59;93892.84;;;16.46;nan
6345;BME280;3205;42.666;23.264;2023-04-19T13:19:27;93901.22;;;16.31;nan
6345;BME280;3205;42.666;23.264;2023-04-19T13:21:53;93903.16;;;16.34;nan
6345;BME280;3205;42.666;23.264;2023-04-19T13:24:19;93901.00;;;15.65;nan
6345;BME280;3205;42.666;23.264;2023-04-19T13:26:45;93900.13;;;15.37;nan
6345;BME280;3205;42.666;23.264;2023-04-19T13:29:11;93894.72;;;15.23;nan
6345;BME280;3205;42.666;23.264;2023-04-19T13:31:38;93900.59;;;14.95;nan
6345;BME280;3205;42.666;23.264;2023-04-19T13:34:04;93891.28;;;14.65;nan